createdAt,value
2018-07-07T00:01:06.833Z,159.50
2018-07-07T00:02:38.403Z,152.80
2018-07-07T00:04:09.975Z,160.60
2018-07-07T00:05:41.546Z,159.60
2018-07-07T00:08:44.790Z,174.30
2018-07-07T00:10:16.262Z,172.60
2018-07-07T00:11:47.834Z,180.00
2018-07-07T00:13:19.406Z,168.90
2018-07-07T00:14:50.978Z,185.00
2018-07-07T00:16:22.551Z,163.00
2018-07-07T00:17:54.121Z,166.40
2018-07-07T00:19:25.693Z,174.70
2018-07-07T00:20:57.269Z,168.20
2018-07-07T00:22:28.837Z,164.20
2018-07-07T00:24:00.409Z,164.40
2018-07-07T00:25:31.980Z,168.60
2018-07-07T00:27:03.904Z,170.20
2018-07-07T00:28:35.124Z,166.10
2018-07-07T00:30:06.695Z,178.60
2018-07-07T00:31:38.266Z,183.50
2018-07-07T00:33:09.838Z,213.40
2018-07-07T00:34:41.410Z,200.30
2018-07-07T00:36:12.981Z,195.40
2018-07-07T00:37:44.553Z,172.60
2018-07-07T00:39:16.275Z,201.00
2018-07-07T00:40:47.698Z,198.90
2018-07-07T00:42:19.267Z,242.60
2018-07-07T00:43:50.839Z,222.40
2018-07-07T00:45:22.513Z,220.90
2018-07-07T00:46:53.982Z,220.80
2018-07-07T00:48:25.554Z,217.00
2018-07-07T00:49:57.125Z,225.30
2018-07-07T00:51:28.696Z,216.40
2018-07-07T00:53:00.268Z,228.10
2018-07-07T00:54:31.948Z,225.80
2018-07-07T00:56:03.410Z,236.10
2018-07-07T00:57:35.232Z,245.50
2018-07-07T00:59:06.553Z,216.50
2018-07-07T01:00:38.125Z,224.30
2018-07-07T01:02:09.696Z,242.80
2018-07-07T01:03:41.368Z,226.80
2018-07-07T01:05:12.838Z,233.00
2018-07-07T01:06:44.409Z,243.90
2018-07-07T01:08:15.983Z,226.00
2018-07-07T01:09:47.552Z,220.10
2018-07-07T01:11:19.123Z,225.90
2018-07-07T01:12:50.695Z,203.30
2018-07-07T01:14:22.266Z,202.00
2018-07-07T01:15:53.837Z,213.00
2018-07-07T01:17:25.417Z,190.40
2018-07-07T01:18:56.980Z,175.10
2018-07-07T01:20:28.552Z,189.70
2018-07-07T01:22:00.924Z,188.50
2018-07-07T01:23:31.694Z,161.50
2018-07-07T01:25:03.266Z,154.00
2018-07-07T01:26:34.837Z,158.60
2018-07-07T01:28:06.508Z,157.00
2018-07-07T01:29:37.979Z,162.40
2018-07-07T01:31:09.551Z,166.20
2018-07-07T01:32:41.124Z,154.30
2018-07-07T01:34:12.694Z,167.10
2018-07-07T01:35:44.267Z,177.50
2018-07-07T01:37:15.837Z,180.00
2018-07-07T01:38:47.409Z,172.70
2018-07-07T01:40:19.080Z,187.40
2018-07-07T01:41:50.552Z,191.60
2018-07-07T01:43:22.125Z,194.10
2018-07-07T01:44:53.695Z,212.00
2018-07-07T01:46:25.267Z,181.70
2018-07-07T01:47:56.837Z,200.50
2018-07-07T01:49:28.409Z,221.80
2018-07-07T01:50:59.980Z,223.70
2018-07-07T01:52:31.652Z,245.80
2018-07-07T01:54:03.123Z,250.50
2018-07-07T01:55:34.695Z,241.60
2018-07-07T01:57:06.267Z,247.00
2018-07-07T01:58:38.237Z,236.50
2018-07-07T02:00:09.408Z,242.20
2018-07-07T02:01:40.979Z,250.00
2018-07-07T02:03:12.550Z,264.30
2018-07-07T02:04:44.125Z,253.60
2018-07-07T02:06:15.693Z,283.80
2018-07-07T02:07:47.264Z,287.40
2018-07-07T02:09:18.836Z,305.80
2018-07-07T02:10:50.561Z,274.40
2018-07-07T02:12:21.978Z,279.10
2018-07-07T02:13:53.549Z,293.80
2018-07-07T02:15:25.122Z,264.90
2018-07-07T02:16:56.791Z,291.70
2018-07-07T02:18:28.792Z,265.70
2018-07-07T02:19:59.832Z,296.60
2018-07-07T02:21:31.403Z,300.20
2018-07-07T02:23:03.325Z,304.50
2018-07-07T02:24:34.548Z,331.60
2018-07-07T02:26:06.116Z,328.90
2018-07-07T02:27:37.688Z,306.90
2018-07-07T02:29:09.508Z,300.10
2018-07-07T02:30:40.830Z,291.10
2018-07-07T02:32:12.401Z,282.80
2018-07-07T02:33:43.971Z,325.30
2018-07-07T02:35:15.643Z,286.50
2018-07-07T02:36:47.118Z,299.90
2018-07-07T02:38:18.685Z,270.40
2018-07-07T02:39:50.259Z,277.00
2018-07-07T02:41:21.826Z,301.90
2018-07-07T02:42:53.402Z,294.90
2018-07-07T02:44:24.968Z,295.30
2018-07-07T02:45:56.539Z,248.70
2018-07-07T02:47:28.261Z,284.50
2018-07-07T02:48:59.681Z,261.70
2018-07-07T02:50:31.252Z,270.70
2018-07-07T02:52:02.822Z,291.40
2018-07-07T02:53:34.646Z,265.00
2018-07-07T02:55:05.964Z,269.90
2018-07-07T02:56:37.536Z,276.70
2018-07-07T02:58:09.107Z,278.60
2018-07-07T02:59:40.679Z,270.10
2018-07-07T03:01:12.248Z,282.00
2018-07-07T03:02:43.820Z,264.50
2018-07-07T03:04:15.391Z,286.60
2018-07-07T03:05:46.962Z,273.80
2018-07-07T03:07:18.536Z,268.00
2018-07-07T03:08:50.105Z,271.80
2018-07-07T03:10:21.675Z,236.70
2018-07-07T03:11:53.345Z,264.00
2018-07-07T03:13:24.818Z,249.30
2018-07-07T03:14:56.387Z,262.10
2018-07-07T03:16:27.963Z,245.70
2018-07-07T03:17:59.527Z,266.00
2018-07-07T03:19:31.098Z,258.70
2018-07-07T03:21:02.679Z,259.30
2018-07-07T03:22:34.241Z,246.60
2018-07-07T03:24:05.812Z,258.10
2018-07-07T03:25:37.382Z,240.10
2018-07-07T03:27:08.954Z,232.90
2018-07-07T03:28:40.525Z,266.50
2018-07-07T03:30:12.301Z,234.60
2018-07-07T03:31:43.667Z,243.50
2018-07-07T03:33:15.238Z,235.50
2018-07-07T03:34:46.808Z,251.10
2018-07-07T03:36:18.380Z,217.00
2018-07-07T03:37:49.950Z,251.30
2018-07-07T03:39:21.521Z,241.80
2018-07-07T03:40:53.092Z,241.30
2018-07-07T03:42:24.664Z,229.20
2018-07-07T03:43:56.234Z,223.40
2018-07-07T03:45:27.805Z,222.70
2018-07-07T03:46:59.376Z,223.20
2018-07-07T03:48:31.047Z,214.00
2018-07-07T03:50:02.519Z,215.40
2018-07-07T03:51:34.090Z,204.00
2018-07-07T03:53:05.660Z,221.90
2018-07-07T03:54:37.232Z,209.00
2018-07-07T03:56:08.803Z,225.50
2018-07-07T03:57:40.376Z,203.10
2018-07-07T03:59:11.944Z,204.60
2018-07-07T04:00:43.618Z,196.60
2018-07-07T04:02:15.087Z,194.80
2018-07-07T04:03:46.660Z,185.80
2018-07-07T04:05:18.228Z,188.70
2018-07-07T04:06:49.900Z,188.40
2018-07-07T04:08:21.370Z,166.20
2018-07-07T04:09:52.942Z,174.70
2018-07-07T04:11:24.514Z,184.30
2018-07-07T04:12:56.088Z,205.80
2018-07-07T04:14:27.657Z,194.80
2018-07-07T04:15:59.226Z,207.60
2018-07-07T04:17:30.797Z,183.90
2018-07-07T04:19:02.370Z,165.40
2018-07-07T04:20:33.939Z,169.80
2018-07-07T04:22:05.551Z,152.50
2018-07-07T04:23:37.081Z,159.60
2018-07-07T04:25:08.753Z,155.70
2018-07-07T04:26:40.222Z,148.20
2018-07-07T04:28:11.794Z,146.50
2018-07-07T04:29:43.368Z,145.50
2018-07-07T04:31:14.937Z,144.10
2018-07-07T04:32:46.518Z,151.60
2018-07-07T04:34:18.084Z,161.90
2018-07-07T04:35:49.651Z,128.80
2018-07-07T04:37:21.222Z,138.70
2018-07-07T04:38:52.794Z,139.10
2018-07-07T04:40:24.363Z,156.90
2018-07-07T04:41:55.937Z,136.50
2018-07-07T04:43:27.606Z,127.70
2018-07-07T04:44:59.077Z,133.30
2018-07-07T04:46:30.651Z,122.40
2018-07-07T04:48:02.219Z,122.40
2018-07-07T04:49:33.792Z,139.60
2018-07-07T04:51:05.361Z,142.00
2018-07-07T04:52:36.932Z,135.80
2018-07-07T04:54:08.503Z,137.40
2018-07-07T04:55:40.075Z,143.50
2018-07-07T04:57:11.645Z,159.90
2018-07-07T04:58:43.220Z,152.40
2018-07-07T05:00:14.787Z,144.10
2018-07-07T05:01:46.459Z,153.40
2018-07-07T05:03:17.929Z,155.20
2018-07-07T05:04:49.501Z,147.00
2018-07-07T05:06:21.071Z,166.70
2018-07-07T05:07:52.642Z,158.30
2018-07-07T05:09:24.212Z,176.10
2018-07-07T05:10:55.784Z,184.20
2018-07-07T05:12:27.355Z,181.50
2018-07-07T05:13:58.926Z,191.70
2018-07-07T05:15:30.553Z,199.00
2018-07-07T05:17:02.068Z,200.90
2018-07-07T05:18:33.638Z,192.30
2018-07-07T05:20:05.310Z,215.00
2018-07-07T05:21:36.784Z,191.50
2018-07-07T05:23:08.357Z,189.80
2018-07-07T05:24:39.922Z,186.10
2018-07-07T05:26:11.607Z,182.10
2018-07-07T05:27:43.067Z,186.70
2018-07-07T05:29:14.635Z,192.30
2018-07-07T05:30:46.206Z,203.60
2018-07-07T05:32:17.776Z,219.20
2018-07-07T05:33:49.347Z,233.80
2018-07-07T05:35:20.918Z,218.90
2018-07-07T05:36:52.489Z,235.60
2018-07-07T05:38:24.160Z,224.50
2018-07-07T05:39:55.630Z,228.40
2018-07-07T05:41:27.202Z,232.30
2018-07-07T05:42:58.772Z,269.80
2018-07-07T05:44:30.343Z,278.00
2018-07-07T05:46:01.914Z,280.50
2018-07-07T05:47:33.485Z,285.40
2018-07-07T05:49:05.057Z,273.80
2018-07-07T05:50:36.626Z,251.30
2018-07-07T05:52:08.197Z,238.90
2018-07-07T05:53:39.767Z,235.20
2018-07-07T05:55:11.339Z,253.90
2018-07-07T05:56:43.010Z,276.30
2018-07-07T05:58:14.480Z,241.20
2018-07-07T05:59:46.050Z,261.30
2018-07-07T06:01:17.621Z,274.20
2018-07-07T06:02:49.295Z,253.80
2018-07-07T06:04:20.763Z,204.20
2018-07-07T06:05:52.334Z,210.50
2018-07-07T06:07:23.904Z,198.40
2018-07-07T06:08:55.476Z,215.90
2018-07-07T06:10:27.047Z,236.80
2018-07-07T06:11:58.617Z,211.30
2018-07-07T06:13:30.187Z,208.70
2018-07-07T06:15:01.859Z,206.80
2018-07-07T06:16:33.331Z,201.90
2018-07-07T06:18:04.902Z,188.40
2018-07-07T06:19:36.503Z,211.60
2018-07-07T06:21:08.043Z,261.30
2018-07-07T06:22:39.615Z,218.10
2018-07-07T06:24:11.184Z,230.50
2018-07-07T06:25:42.758Z,237.70
2018-07-07T06:27:14.328Z,241.80
2018-07-07T06:28:45.900Z,235.10
2018-07-07T06:30:17.468Z,211.10
2018-07-07T06:31:49.040Z,208.90
2018-07-07T06:33:21.010Z,212.60
2018-07-07T06:34:52.180Z,220.60
2018-07-07T06:36:23.751Z,244.80
2018-07-07T06:37:55.321Z,246.10
2018-07-07T06:39:26.991Z,231.70
2018-07-07T06:40:58.462Z,222.40
2018-07-07T06:42:30.033Z,236.10
2018-07-07T06:44:01.603Z,260.00
2018-07-07T06:45:33.173Z,225.50
2018-07-07T06:47:04.744Z,240.90
2018-07-07T06:48:36.314Z,236.40
2018-07-07T06:50:07.888Z,256.00
2018-07-07T06:51:39.555Z,269.70
2018-07-07T06:53:11.025Z,248.00
2018-07-07T06:54:42.596Z,259.70
2018-07-07T06:56:14.166Z,263.50
2018-07-07T06:57:45.737Z,266.60
2018-07-07T06:59:17.306Z,251.90
2018-07-07T07:00:48.877Z,262.60
2018-07-07T07:02:20.447Z,231.80
2018-07-07T07:03:52.018Z,263.80
2018-07-07T07:05:23.588Z,252.90
2018-07-07T07:06:55.161Z,267.80
2018-07-07T07:08:26.728Z,271.40
2018-07-07T07:09:58.499Z,298.70
2018-07-07T07:11:29.870Z,297.60
2018-07-07T07:13:01.440Z,291.30
2018-07-07T07:14:33.010Z,253.40
2018-07-07T07:16:04.580Z,263.70
2018-07-07T07:17:36.151Z,300.60
2018-07-07T07:19:07.722Z,266.50
2018-07-07T07:20:39.296Z,278.60
2018-07-07T07:22:10.862Z,214.50
2018-07-07T07:23:42.432Z,237.80
2018-07-07T07:25:14.006Z,235.10
2018-07-07T07:26:45.572Z,245.20
2018-07-07T07:28:17.248Z,241.50
2018-07-07T07:29:48.713Z,235.60
2018-07-07T07:31:20.283Z,244.00
2018-07-07T07:32:51.853Z,261.90
2018-07-07T07:34:23.437Z,258.50
2018-07-07T07:35:55.010Z,247.10
2018-07-07T07:37:26.563Z,257.30
2018-07-07T07:38:58.137Z,239.50
2018-07-07T07:40:29.804Z,240.00
2018-07-07T07:42:01.274Z,239.50
2018-07-07T07:43:32.843Z,252.30
2018-07-07T07:45:04.414Z,252.50
2018-07-07T07:46:36.084Z,267.10
2018-07-07T07:48:07.554Z,242.80
2018-07-07T07:49:39.124Z,245.90
2018-07-07T07:51:10.693Z,225.80
2018-07-07T07:52:42.316Z,223.50
2018-07-07T07:54:13.833Z,223.40
2018-07-07T07:55:45.405Z,219.20
2018-07-07T07:57:16.973Z,227.70
2018-07-07T07:58:48.544Z,225.20
2018-07-07T08:00:20.113Z,220.20
2018-07-07T08:01:51.682Z,227.30
2018-07-07T08:03:23.253Z,247.40
2018-07-07T08:04:55.249Z,227.50
2018-07-07T08:06:26.391Z,291.10
2018-07-07T08:07:57.961Z,230.40
2018-07-07T08:09:29.531Z,233.80
2018-07-07T08:11:01.201Z,224.90
2018-07-07T08:12:32.670Z,229.10
2018-07-07T08:14:04.281Z,210.70
2018-07-07T08:15:35.813Z,233.20
2018-07-07T08:17:07.380Z,232.30
2018-07-07T08:18:38.948Z,231.40
2018-07-07T08:20:10.518Z,228.80
2018-07-07T08:21:42.088Z,250.10
2018-07-07T08:23:13.759Z,243.80
2018-07-07T08:24:45.227Z,271.50
2018-07-07T08:26:16.800Z,244.50
2018-07-07T08:27:48.369Z,270.20
2018-07-07T08:29:19.942Z,284.50
2018-07-07T08:30:51.506Z,282.90
2018-07-07T08:32:23.075Z,293.30
2018-07-07T08:33:54.644Z,226.50
2018-07-07T08:35:26.223Z,246.70
2018-07-07T08:36:57.783Z,239.00
2018-07-07T08:38:29.360Z,242.30
2018-07-07T08:40:00.923Z,296.10
2018-07-07T08:41:32.592Z,312.30
2018-07-07T08:43:04.062Z,274.80
2018-07-07T08:44:35.630Z,254.60
2018-07-07T08:46:07.200Z,249.20
2018-07-07T08:47:38.770Z,245.60
2018-07-07T08:49:10.340Z,214.60
2018-07-07T08:50:41.908Z,196.40
2018-07-07T08:52:13.478Z,199.70
2018-07-07T08:53:45.048Z,238.40
2018-07-07T08:55:16.617Z,235.60
2018-07-07T08:56:48.189Z,207.70
2018-07-07T08:58:19.756Z,233.00
2018-07-07T08:59:51.425Z,244.60
2018-07-07T09:01:22.894Z,229.30
2018-07-07T09:02:54.463Z,216.80
2018-07-07T09:04:26.034Z,264.90
2018-07-07T09:05:57.852Z,276.20
2018-07-07T09:07:29.171Z,331.20
2018-07-07T09:09:00.741Z,315.90
2018-07-07T09:10:32.309Z,236.60
2018-07-07T09:12:03.979Z,227.70
2018-07-07T09:13:35.449Z,202.10
2018-07-07T09:15:07.018Z,220.00
2018-07-07T09:16:38.588Z,256.40
2018-07-07T09:18:10.256Z,293.10
2018-07-07T09:19:41.726Z,264.30
2018-07-07T09:21:13.349Z,227.10
2018-07-07T09:22:44.864Z,235.80
2018-07-07T09:24:16.434Z,220.10
2018-07-07T09:25:48.004Z,240.20
2018-07-07T09:27:19.572Z,209.60
2018-07-07T09:28:51.142Z,263.90
2018-07-07T09:30:22.712Z,242.90
2018-07-07T09:31:54.281Z,217.30
2018-07-07T09:33:25.850Z,231.80
2018-07-07T09:34:57.421Z,202.60
2018-07-07T09:36:29.340Z,196.70
2018-07-07T09:38:00.559Z,207.60
2018-07-07T09:39:32.135Z,190.40
2018-07-07T09:41:03.701Z,204.70
2018-07-07T09:42:35.368Z,201.30
2018-07-07T09:44:06.908Z,223.20
2018-07-07T09:45:38.406Z,197.50
2018-07-07T09:47:09.975Z,204.60
2018-07-07T09:48:41.545Z,209.40
2018-07-07T09:50:13.115Z,214.20
2018-07-07T09:51:44.683Z,212.00
2018-07-07T09:53:16.255Z,201.30
2018-07-07T09:54:48.424Z,230.30
2018-07-07T09:56:19.418Z,246.40
2018-07-07T09:57:50.961Z,247.30
2018-07-07T09:59:22.530Z,248.50
2018-07-07T10:00:54.099Z,228.80
2018-07-07T10:02:25.677Z,203.40
2018-07-07T10:03:57.238Z,193.20
2018-07-07T10:05:28.807Z,196.80
2018-07-07T10:07:00.628Z,194.20
2018-07-07T10:08:31.949Z,208.80
2018-07-07T10:10:03.516Z,217.00
2018-07-07T10:11:35.086Z,208.90
2018-07-07T10:13:06.905Z,201.70
2018-07-07T10:16:09.794Z,185.90
2018-07-07T10:17:41.366Z,186.10
2018-07-07T10:19:12.933Z,169.70
2018-07-07T10:20:44.527Z,164.80
2018-07-07T10:22:16.077Z,190.20
2018-07-07T10:23:48.175Z,166.70
2018-07-07T10:25:19.214Z,166.60
2018-07-07T10:26:50.783Z,182.30
2018-07-07T10:28:22.356Z,175.60
2018-07-07T10:31:25.943Z,223.90
2018-07-07T10:32:57.065Z,193.70
2018-07-07T10:34:28.658Z,174.20
2018-07-07T10:37:31.846Z,162.00
2018-07-07T10:39:03.352Z,139.60
2018-07-07T10:40:34.923Z,138.70
2018-07-07T10:42:06.493Z,155.90
2018-07-07T10:43:38.573Z,146.70
2018-07-07T10:45:09.637Z,141.80
2018-07-07T10:46:41.513Z,138.70
2018-07-07T10:48:12.782Z,136.40
2018-07-07T10:49:44.454Z,138.30
2018-07-07T10:51:15.927Z,127.70
2018-07-07T10:52:47.500Z,125.20
2018-07-07T10:54:19.074Z,124.10
2018-07-07T10:55:50.647Z,124.10
2018-07-07T10:57:22.222Z,114.30
2018-07-07T10:58:54.097Z,114.50
2018-07-07T11:00:25.372Z,108.20
2018-07-07T11:01:56.947Z,105.90
2018-07-07T11:03:28.522Z,103.60
2018-07-07T11:05:00.097Z,103.70
2018-07-07T11:06:31.675Z,94.90
2018-07-07T11:08:03.350Z,78.40
2018-07-07T11:09:34.850Z,83.20
2018-07-07T11:11:06.404Z,78.00
2018-07-07T11:12:38.715Z,81.50
2018-07-07T11:14:09.862Z,76.00
2018-07-07T11:15:41.139Z,70.50
2018-07-07T11:18:44.292Z,72.00
2018-07-07T11:21:47.451Z,72.10
2018-07-07T11:23:19.027Z,73.50
2018-07-07T11:24:50.607Z,69.90
2018-07-07T11:26:22.185Z,66.70
2018-07-07T11:27:54.067Z,65.80
2018-07-07T11:29:25.342Z,71.40
2018-07-07T11:30:56.922Z,61.30
2018-07-07T11:32:28.500Z,64.00
2018-07-07T11:35:31.658Z,59.90
2018-07-07T11:37:03.343Z,62.80
2018-07-07T11:38:34.816Z,61.90
2018-07-07T11:40:06.395Z,65.10
2018-07-07T11:41:37.972Z,64.60
2018-07-07T11:43:10.084Z,61.50
2018-07-07T11:44:41.130Z,66.00
2018-07-07T11:46:12.709Z,61.10
2018-07-07T11:47:44.536Z,63.20
2018-07-07T11:50:47.445Z,63.00
2018-07-07T11:52:19.020Z,65.00
2018-07-07T11:53:50.598Z,63.60
2018-07-07T11:56:53.762Z,56.50
2018-07-07T11:58:25.334Z,58.80
2018-07-07T11:59:56.913Z,60.40
2018-07-07T12:01:28.494Z,59.30
2018-07-07T12:03:00.273Z,58.20
2018-07-07T12:04:31.734Z,60.10
2018-07-07T12:06:03.332Z,55.20
2018-07-07T12:07:34.809Z,51.60
2018-07-07T12:09:06.389Z,51.30
2018-07-07T12:10:37.974Z,56.10
2018-07-07T12:12:10.004Z,56.10
2018-07-07T12:13:41.135Z,57.30
2018-07-07T12:15:12.711Z,52.40
2018-07-07T12:16:44.291Z,51.70
2018-07-07T12:19:47.497Z,50.40
2018-07-07T12:21:19.035Z,52.50
2018-07-07T12:22:50.616Z,47.80
2018-07-07T12:24:22.198Z,49.50
2018-07-07T12:25:54.329Z,52.30
2018-07-07T12:27:25.362Z,49.80
2018-07-07T12:28:56.940Z,47.90
2018-07-07T12:30:28.520Z,50.20
2018-07-07T12:32:00.304Z,50.00
2018-07-07T12:35:03.263Z,48.40
2018-07-07T12:36:34.900Z,46.80
2018-07-07T12:38:06.425Z,49.00
2018-07-07T12:39:38.007Z,53.60
2018-07-07T12:41:09.790Z,49.10
2018-07-07T12:42:41.168Z,44.10
2018-07-07T12:44:12.849Z,43.50
2018-07-07T12:45:44.330Z,41.30
2018-07-07T12:48:47.493Z,49.10
2018-07-07T12:50:19.376Z,46.20
2018-07-07T12:51:50.673Z,50.00
2018-07-07T12:54:53.820Z,49.30
2018-07-07T12:56:25.397Z,48.10
2018-07-07T12:57:56.977Z,51.00
2018-07-07T12:59:28.562Z,42.60
2018-07-07T13:01:00.139Z,46.80
2018-07-07T13:02:32.022Z,42.60
2018-07-07T13:04:03.299Z,45.10
2018-07-07T13:05:34.880Z,46.00
2018-07-07T13:07:06.469Z,47.20
2018-07-07T13:08:38.041Z,46.60
2018-07-07T13:10:09.927Z,45.50
2018-07-07T13:11:41.506Z,43.20
2018-07-07T13:13:12.782Z,50.20
2018-07-07T13:14:44.612Z,45.80
2018-07-07T13:16:16.475Z,45.00
2018-07-07T13:17:47.523Z,48.30
2018-07-07T13:19:19.110Z,45.50
2018-07-07T13:20:52.010Z,44.10
2018-07-07T13:23:54.048Z,45.00
2018-07-07T13:26:57.008Z,50.20
2018-07-07T13:28:28.590Z,46.40
2018-07-07T13:30:00.381Z,46.70
2018-07-07T13:31:31.755Z,46.80
2018-07-07T13:33:03.345Z,46.10
2018-07-07T13:34:34.918Z,42.30
2018-07-07T13:36:06.494Z,46.20
2018-07-07T13:37:38.386Z,47.80
2018-07-07T13:39:09.762Z,44.90
2018-07-07T13:40:41.239Z,47.40
2018-07-07T13:42:12.818Z,53.90
2018-07-07T13:43:44.401Z,49.60
2018-07-07T13:45:16.270Z,47.30
2018-07-07T13:46:47.864Z,49.20
2018-07-07T13:48:19.445Z,44.50
2018-07-07T13:49:50.722Z,48.10
2018-07-07T13:51:22.412Z,45.70
2018-07-07T13:52:54.220Z,44.60
2018-07-07T13:55:57.045Z,44.30
2018-07-07T13:57:29.227Z,45.50
2018-07-07T13:59:00.206Z,35.50
2018-07-07T14:00:31.789Z,37.20
2018-07-07T14:02:03.369Z,37.70
2018-07-07T14:03:34.950Z,36.80
2018-07-07T14:05:06.533Z,36.20
2018-07-07T14:06:38.317Z,34.70
2018-07-07T14:08:09.696Z,28.50
2018-07-07T14:09:41.278Z,27.70
2018-07-07T14:11:12.859Z,29.10
2018-07-07T14:12:44.442Z,29.90
2018-07-07T14:14:16.079Z,30.70
2018-07-07T14:15:48.110Z,27.90
2018-07-07T14:18:50.823Z,27.40
2018-07-07T14:20:22.406Z,28.20
2018-07-07T14:23:25.563Z,36.70
2018-07-07T14:24:57.400Z,37.90
2018-07-07T14:26:28.679Z,39.70
2018-07-07T14:28:00.258Z,38.20
2018-07-07T14:29:32.047Z,40.90
2018-07-07T14:31:03.421Z,39.30
2018-07-07T14:32:35.005Z,33.80
2018-07-07T14:34:06.583Z,36.60
2018-07-07T14:37:09.947Z,34.20
2018-07-07T14:38:41.329Z,35.00
2018-07-07T14:40:12.909Z,34.80
2018-07-07T14:41:44.493Z,38.60
2018-07-07T14:43:16.075Z,35.40
2018-07-07T14:44:47.656Z,32.70
2018-07-07T14:46:19.239Z,35.90
2018-07-07T14:47:50.821Z,34.00
2018-07-07T14:50:53.988Z,34.90
2018-07-07T14:52:25.873Z,33.30
2018-07-07T14:53:57.151Z,30.70
2018-07-07T14:55:28.734Z,29.30
2018-07-07T14:57:00.717Z,27.40
2018-07-07T14:58:32.637Z,25.50
2018-07-07T15:00:03.482Z,26.60
2018-07-07T15:01:35.802Z,26.00
2018-07-07T15:03:06.649Z,24.80
2018-07-07T15:06:10.024Z,25.10
2018-07-07T15:07:41.397Z,25.50
2018-07-07T15:09:12.980Z,22.00
2018-07-07T15:12:16.351Z,20.60
2018-07-07T15:13:47.733Z,19.00
2018-07-07T15:15:20.215Z,20.50
2018-07-07T15:16:51.104Z,19.40
2018-07-07T15:18:22.480Z,18.10
2018-07-07T15:19:54.063Z,18.50
2018-07-07T15:21:25.647Z,17.70
2018-07-07T15:22:57.318Z,19.40
2018-07-07T15:24:28.813Z,16.20
2018-07-07T15:26:00.396Z,15.90
2018-07-07T15:27:32.080Z,14.40
2018-07-07T15:29:03.867Z,13.00
2018-07-07T15:30:35.150Z,13.40
2018-07-07T15:32:06.731Z,14.00
2018-07-07T15:33:38.414Z,12.90
2018-07-07T15:36:41.482Z,14.20
2018-07-07T15:38:13.069Z,15.00
2018-07-07T15:39:44.658Z,15.90
2018-07-07T15:42:48.024Z,15.00
2018-07-07T15:44:19.603Z,15.80
2018-07-07T15:45:51.204Z,16.80
2018-07-07T15:47:22.571Z,16.40
2018-07-07T15:48:54.355Z,16.00
2018-07-07T15:51:57.418Z,15.90
2018-07-07T15:53:28.907Z,15.10
2018-07-07T15:55:00.485Z,15.90
2018-07-07T15:56:32.271Z,15.50
2018-07-07T15:58:04.287Z,16.30
2018-07-07T15:59:35.236Z,16.30
2018-07-07T16:01:06.819Z,16.90
2018-07-07T16:02:38.723Z,15.60
2018-07-07T16:04:09.987Z,15.40
2018-07-07T16:07:13.152Z,15.50
2018-07-07T16:08:45.045Z,13.50
2018-07-07T16:10:16.419Z,14.50
2018-07-07T16:13:19.486Z,14.70
2018-07-07T16:14:51.070Z,14.20
2018-07-07T16:17:54.238Z,13.20
2018-07-07T16:19:26.432Z,12.20
2018-07-07T16:20:57.406Z,13.50
2018-07-07T16:22:28.990Z,12.20
2018-07-07T16:24:00.778Z,11.80
2018-07-07T16:25:32.362Z,11.50
2018-07-07T16:27:03.743Z,10.80
2018-07-07T16:28:35.357Z,10.20
2018-07-07T16:30:07.129Z,9.50
2018-07-07T16:34:41.669Z,7.40
2018-07-07T16:36:13.250Z,9.20
2018-07-07T16:37:44.833Z,8.50
2018-07-07T16:39:16.417Z,8.30
2018-07-07T16:40:48.005Z,8.70
2018-07-07T16:42:20.118Z,9.20
2018-07-07T16:43:51.169Z,8.90
2018-07-07T16:45:23.067Z,9.20
2018-07-07T16:46:54.337Z,9.30
2018-07-07T16:49:58.137Z,8.50
2018-07-07T16:53:00.671Z,9.10
2018-07-07T16:54:32.862Z,10.30
2018-07-07T16:57:35.423Z,14.60
2018-07-07T16:59:07.004Z,8.60
2018-07-07T17:00:38.588Z,8.60
2018-07-07T17:02:10.171Z,8.40
2018-07-07T17:03:41.956Z,9.10
2018-07-07T17:05:13.338Z,8.60
2018-07-07T17:06:44.920Z,8.80
2018-07-07T17:08:16.504Z,8.90
2018-07-07T17:09:48.390Z,9.70
2018-07-07T17:11:19.671Z,10.00
2018-07-07T17:12:51.253Z,9.70
2018-07-07T17:14:22.836Z,10.40
2018-07-07T17:15:54.420Z,10.10
2018-07-07T17:17:26.536Z,8.90
2018-07-07T17:18:58.525Z,9.30
2018-07-07T17:20:29.170Z,9.00
2018-07-07T17:22:00.854Z,8.80
2018-07-07T17:23:32.540Z,8.10
2018-07-07T17:26:35.502Z,8.00
2018-07-07T17:28:07.184Z,7.90
2018-07-07T17:29:38.667Z,7.30
2018-07-07T17:31:10.252Z,7.90
2018-07-07T17:32:41.843Z,9.20
2018-07-07T17:34:13.719Z,9.20
2018-07-07T17:35:45.001Z,9.00
2018-07-07T17:37:16.888Z,10.00
2018-07-07T17:40:20.049Z,10.20
2018-07-07T17:41:51.329Z,13.10
2018-07-07T17:43:22.910Z,12.00
2018-07-07T17:44:54.494Z,12.60
2018-07-07T17:46:26.378Z,12.70
2018-07-07T17:47:58.189Z,11.90
2018-07-07T17:49:29.292Z,12.20
2018-07-07T17:51:00.822Z,12.60
2018-07-07T17:52:32.659Z,10.60
2018-07-07T17:54:04.292Z,10.10
2018-07-07T17:55:36.102Z,11.30
2018-07-07T17:57:07.686Z,10.80
2018-07-07T17:58:38.740Z,10.60
2018-07-07T18:00:10.321Z,11.70
2018-07-07T18:03:13.483Z,13.70
2018-07-07T18:04:45.267Z,12.40
2018-07-07T18:06:18.578Z,11.70
2018-07-07T18:07:48.434Z,10.60
2018-07-07T18:09:20.321Z,10.70
2018-07-07T18:10:51.397Z,10.60
2018-07-07T18:12:22.979Z,10.30
2018-07-07T18:13:54.562Z,9.10
2018-07-07T18:16:57.727Z,9.60
2018-07-07T18:18:29.309Z,9.50
2018-07-07T18:20:00.895Z,10.20
2018-07-07T18:21:32.474Z,8.40
2018-07-07T18:23:04.159Z,8.70
2018-07-07T18:24:35.638Z,9.00
2018-07-07T18:26:07.220Z,8.10
2018-07-07T18:27:38.802Z,9.70
2018-07-07T18:29:10.386Z,10.10
2018-07-07T18:30:42.270Z,9.60
2018-07-07T18:32:13.859Z,9.50
2018-07-07T18:33:45.129Z,8.70
2018-07-07T18:35:16.710Z,8.70
2018-07-07T18:36:48.595Z,10.10
2018-07-07T18:39:51.454Z,10.00
2018-07-07T18:41:23.135Z,9.60
2018-07-07T18:42:54.615Z,9.50
2018-07-07T18:44:26.400Z,9.50
2018-07-07T18:45:58.284Z,9.10
2018-07-07T18:47:29.362Z,8.60
2018-07-07T18:49:00.939Z,9.70
2018-07-07T18:50:32.519Z,8.30
2018-07-07T18:52:05.111Z,9.20
2018-07-07T18:55:07.266Z,9.50
2018-07-07T18:56:38.852Z,8.30
2018-07-07T18:58:10.427Z,10.40
2018-07-07T18:59:42.005Z,10.70
2018-07-07T19:01:13.686Z,11.00
2018-07-07T19:02:45.166Z,11.20
2018-07-07T19:04:16.746Z,9.80
2018-07-07T19:05:48.327Z,10.70
2018-07-07T19:08:51.489Z,10.60
2018-07-07T19:10:23.067Z,10.80
2018-07-07T19:11:54.647Z,10.30
2018-07-07T19:13:26.227Z,9.90
2018-07-07T19:14:58.015Z,9.90
2018-07-07T19:16:29.387Z,9.50
2018-07-07T19:18:00.971Z,9.80
2018-07-07T19:19:32.547Z,10.00
2018-07-07T19:21:04.227Z,9.10
2018-07-07T19:22:35.709Z,8.80
2018-07-07T19:24:07.286Z,9.30
2018-07-07T19:25:38.865Z,8.70
2018-07-07T19:27:10.750Z,9.90
2018-07-07T19:28:42.059Z,9.30
2018-07-07T19:30:14.210Z,9.20
2018-07-07T19:31:45.183Z,9.60
2018-07-07T19:33:16.765Z,9.40
2018-07-07T19:34:48.343Z,8.70
2018-07-07T19:36:19.921Z,8.70
2018-07-07T19:37:51.500Z,12.20
2018-07-07T19:39:24.122Z,8.50
2018-07-07T19:40:54.659Z,8.80
2018-07-07T19:42:26.238Z,10.20
2018-07-07T19:43:58.269Z,8.60
2018-07-07T19:45:29.598Z,9.00
2018-07-07T19:47:02.087Z,10.30
2018-07-07T19:50:04.666Z,10.50
2018-07-07T19:51:35.711Z,10.90
2018-07-07T19:53:07.289Z,11.40
2018-07-07T19:54:38.867Z,10.80
2018-07-07T19:56:10.445Z,11.70
2018-07-07T19:57:42.127Z,10.90
2018-07-07T19:59:13.604Z,11.10
2018-07-07T20:00:45.181Z,11.40
2018-07-07T20:02:16.765Z,12.10
2018-07-07T20:03:48.338Z,11.70
2018-07-07T20:05:19.915Z,11.20
2018-07-07T20:06:51.498Z,11.80
2018-07-07T20:08:23.070Z,12.10
2018-07-07T20:09:54.747Z,13.10
2018-07-07T20:11:26.227Z,13.90
2018-07-07T20:12:57.854Z,13.50
2018-07-07T20:14:29.380Z,14.00
2018-07-07T20:16:01.058Z,13.30
2018-07-07T20:19:04.112Z,13.20
2018-07-07T20:20:35.689Z,13.50
2018-07-07T20:22:07.302Z,13.80
2018-07-07T20:23:38.844Z,13.30
2018-07-07T20:25:10.420Z,14.20
2018-07-07T20:26:41.997Z,12.30